sensor_id;sensor_type;location;lat;lon;timestamp;temperature;humidity
65559;DHT22;52203;51.998;5.140;2023-04-01T00:00:16;6.09;118.99
65559;DHT22;52203;51.998;5.140;2023-04-01T00:02:42;5.98;118.99
65559;DHT22;52203;51.998;5.140;2023-04-01T00:05:08;5.93;118.99
65559;DHT22;52203;51.998;5.140;2023-04-01T00:07:35;5.89;118.99
65559;DHT22;52203;51.998;5.140;2023-04-01T00:10:02;5.93;118.99
65559;DHT22;52203;51.998;5.140;2023-04-01T00:12:28;6.61;118.99
65559;DHT22;52203;51.998;5.140;2023-04-01T00:14:53;5.75;118.99
65559;DHT22;52203;51.998;5.140;2023-04-01T00:17:19;5.67;118.99
65559;DHT22;52203;51.998;5.140;2023-04-01T00:19:45;5.69;118.99
65559;DHT22;52203;51.998;5.140;2023-04-01T00:22:10;5.65;118.99
65559;DHT22;52203;51.998;5.140;2023-04-01T00:24:37;5.64;118.99
65559;DHT22;52203;51.998;5.140;2023-04-01T00:27:03;5.61;118.99
65559;DHT22;52203;51.998;5.140;2023-04-01T00:29:28;5.52;118.99
65559;DHT22;52203;51.998;5.140;2023-04-01T00:31:56;6.54;118.99
65559;DHT22;52203;51.998;5.140;2023-04-01T00:34:22;5.83;118.99
65559;DHT22;52203;51.998;5.140;2023-04-01T00:36:49;5.59;118.99
65559;DHT22;52203;51.998;5.140;2023-04-01T00:39:15;5.51;118.99
65559;DHT22;52203;51.998;5.140;2023-04-01T00:41:41;5.53;118.99
65559;DHT22;52203;51.998;5.140;2023-04-01T00:44:21;5.50;118.99
65559;DHT22;52203;51.998;5.140;2023-04-01T00:46:48;5.41;118.99
65559;DHT22;52203;51.998;5.140;2023-04-01T00:49:15;6.50;118.99
65559;DHT22;52203;51.998;5.140;2023-04-01T00:51:45;5.39;118.99
65559;DHT22;52203;51.998;5.140;2023-04-01T00:54:14;5.35;118.99
65559;DHT22;52203;51.998;5.140;2023-04-01T00:56:51;5.33;118.99
65559;DHT22;52203;51.998;5.140;2023-04-01T00:59:24;5.34;118.99
65559;DHT22;52203;51.998;5.140;2023-04-01T01:01:50;5.31;118.99
65559;DHT22;52203;51.998;5.140;2023-04-01T01:04:26;5.34;118.99
65559;DHT22;52203;51.998;5.140;2023-04-01T01:23:53;5.26;118.99
65559;DHT22;52203;51.998;5.140;2023-04-01T01:26:46;5.21;118.99
65559;DHT22;52203;51.998;5.140;2023-04-01T01:29:33;5.22;118.99
65559;DHT22;52203;51.998;5.140;2023-04-01T01:35:19;5.23;118.99
65559;DHT22;52203;51.998;5.140;2023-04-01T01:37:47;5.24;118.99
65559;DHT22;52203;51.998;5.140;2023-04-01T01:40:15;5.22;118.99
65559;DHT22;52203;51.998;5.140;2023-04-01T01:42:45;5.23;118.99
65559;DHT22;52203;51.998;5.140;2023-04-01T01:45:14;5.20;118.99
65559;DHT22;52203;51.998;5.140;2023-04-01T01:47:43;5.22;118.99
65559;DHT22;52203;51.998;5.140;2023-04-01T01:50:11;5.19;118.99
65559;DHT22;52203;51.998;5.140;2023-04-01T01:52:37;5.18;118.99
65559;DHT22;52203;51.998;5.140;2023-04-01T01:55:03;5.19;118.99
65559;DHT22;52203;51.998;5.140;2023-04-01T01:57:32;5.13;118.99
65559;DHT22;52203;51.998;5.140;2023-04-01T02:00:04;5.19;118.99
65559;DHT22;52203;51.998;5.140;2023-04-01T02:02:33;5.19;118.99
65559;DHT22;52203;51.998;5.140;2023-04-01T02:04:58;5.20;118.99
65559;DHT22;52203;51.998;5.140;2023-04-01T02:07:30;5.19;118.99
65559;DHT22;52203;51.998;5.140;2023-04-01T02:09:56;5.19;118.99
65559;DHT22;52203;51.998;5.140;2023-04-01T02:12:23;5.15;118.99
65559;DHT22;52203;51.998;5.140;2023-04-01T02:14:54;5.15;118.99
65559;DHT22;52203;51.998;5.140;2023-04-01T02:17:25;5.12;118.99
65559;DHT22;52203;51.998;5.140;2023-04-01T02:19:54;5.13;118.99
65559;DHT22;52203;51.998;5.140;2023-04-01T02:22:28;5.16;118.99
65559;DHT22;52203;51.998;5.140;2023-04-01T02:25:00;5.13;118.99
65559;DHT22;52203;51.998;5.140;2023-04-01T02:27:26;5.16;118.99
65559;DHT22;52203;51.998;5.140;2023-04-01T02:29:52;5.10;118.99
65559;DHT22;52203;51.998;5.140;2023-04-01T02:32:19;5.10;118.99
65559;DHT22;52203;51.998;5.140;2023-04-01T02:34:46;5.10;118.99
65559;DHT22;52203;51.998;5.140;2023-04-01T02:37:13;5.11;118.99
65559;DHT22;52203;51.998;5.140;2023-04-01T02:39:39;5.07;118.99
65559;DHT22;52203;51.998;5.140;2023-04-01T02:42:04;5.09;118.99
65559;DHT22;52203;51.998;5.140;2023-04-01T02:44:30;5.09;118.99
65559;DHT22;52203;51.998;5.140;2023-04-01T02:46:56;5.10;118.99
65559;DHT22;52203;51.998;5.140;2023-04-01T02:49:21;5.12;118.99
65559;DHT22;52203;51.998;5.140;2023-04-01T02:51:47;5.10;118.99
65559;DHT22;52203;51.998;5.140;2023-04-01T02:54:12;5.10;118.99
65559;DHT22;52203;51.998;5.140;2023-04-01T02:56:38;5.12;118.99
65559;DHT22;52203;51.998;5.140;2023-04-01T02:59:04;5.08;118.99
65559;DHT22;52203;51.998;5.140;2023-04-01T03:01:29;5.11;118.99
65559;DHT22;52203;51.998;5.140;2023-04-01T03:03:55;5.09;118.99
65559;DHT22;52203;51.998;5.140;2023-04-01T03:06:20;5.11;118.99
65559;DHT22;52203;51.998;5.140;2023-04-01T03:08:46;5.10;118.99
65559;DHT22;52203;51.998;5.140;2023-04-01T03:11:12;5.13;118.99
65559;DHT22;52203;51.998;5.140;2023-04-01T03:13:37;5.12;118.99
65559;DHT22;52203;51.998;5.140;2023-04-01T03:16:03;5.18;118.99
65559;DHT22;52203;51.998;5.140;2023-04-01T03:18:29;5.17;118.99
65559;DHT22;52203;51.998;5.140;2023-04-01T03:20:54;5.17;118.99
65559;DHT22;52203;51.998;5.140;2023-04-01T03:23:20;5.17;118.99
65559;DHT22;52203;51.998;5.140;2023-04-01T03:25:46;5.16;118.99
65559;DHT22;52203;51.998;5.140;2023-04-01T03:28:12;5.15;118.99
65559;DHT22;52203;51.998;5.140;2023-04-01T03:30:38;5.20;118.99
65559;DHT22;52203;51.998;5.140;2023-04-01T03:33:04;5.18;118.99
65559;DHT22;52203;51.998;5.140;2023-04-01T03:35:30;5.19;118.99
65559;DHT22;52203;51.998;5.140;2023-04-01T03:37:55;5.20;118.99
65559;DHT22;52203;51.998;5.140;2023-04-01T03:40:22;5.22;118.99
65559;DHT22;52203;51.998;5.140;2023-04-01T03:42:48;5.19;118.99
65559;DHT22;52203;51.998;5.140;2023-04-01T03:45:14;5.19;118.99
65559;DHT22;52203;51.998;5.140;2023-04-01T03:47:40;5.18;118.99
65559;DHT22;52203;51.998;5.140;2023-04-01T03:50:07;5.21;118.99
65559;DHT22;52203;51.998;5.140;2023-04-01T03:52:33;5.22;118.99
65559;DHT22;52203;51.998;5.140;2023-04-01T03:54:59;5.23;118.99
65559;DHT22;52203;51.998;5.140;2023-04-01T03:57:25;5.27;118.99
65559;DHT22;52203;51.998;5.140;2023-04-01T03:59:51;5.22;118.99
65559;DHT22;52203;51.998;5.140;2023-04-01T04:02:17;5.24;118.99
65559;DHT22;52203;51.998;5.140;2023-04-01T04:04:42;5.26;118.99
65559;DHT22;52203;51.998;5.140;2023-04-01T04:07:08;5.27;118.99
65559;DHT22;52203;51.998;5.140;2023-04-01T04:09:33;5.33;118.99
65559;DHT22;52203;51.998;5.140;2023-04-01T04:12:00;5.37;118.99
65559;DHT22;52203;51.998;5.140;2023-04-01T04:14:25;5.38;118.99
65559;DHT22;52203;51.998;5.140;2023-04-01T04:16:51;5.41;118.99
65559;DHT22;52203;51.998;5.140;2023-04-01T04:19:17;5.37;118.99
65559;DHT22;52203;51.998;5.140;2023-04-01T04:21:42;5.35;118.99
65559;DHT22;52203;51.998;5.140;2023-04-01T04:24:08;5.36;118.99
65559;DHT22;52203;51.998;5.140;2023-04-01T04:26:34;5.41;118.99
65559;DHT22;52203;51.998;5.140;2023-04-01T04:29:00;8.80;118.99
65559;DHT22;52203;51.998;5.140;2023-04-01T04:31:27;8.87;118.99
65559;DHT22;52203;51.998;5.140;2023-04-01T04:33:53;8.91;118.99
65559;DHT22;52203;51.998;5.140;2023-04-01T04:36:20;8.95;118.99
65559;DHT22;52203;51.998;5.140;2023-04-01T04:38:45;8.94;118.99
65559;DHT22;52203;51.998;5.140;2023-04-01T04:41:12;9.02;118.99
65559;DHT22;52203;51.998;5.140;2023-04-01T04:43:39;9.05;118.99
65559;DHT22;52203;51.998;5.140;2023-04-01T04:46:09;9.06;118.99
65559;DHT22;52203;51.998;5.140;2023-04-01T04:48:36;9.08;118.99
65559;DHT22;52203;51.998;5.140;2023-04-01T04:51:02;9.14;118.99
65559;DHT22;52203;51.998;5.140;2023-04-01T04:53:28;9.15;118.99
65559;DHT22;52203;51.998;5.140;2023-04-01T04:55:54;9.10;118.99
65559;DHT22;52203;51.998;5.140;2023-04-01T04:58:20;9.17;118.99
65559;DHT22;52203;51.998;5.140;2023-04-01T05:00:46;9.12;118.99
65559;DHT22;52203;51.998;5.140;2023-04-01T05:03:12;9.14;118.99
65559;DHT22;52203;51.998;5.140;2023-04-01T05:05:39;9.17;118.99
65559;DHT22;52203;51.998;5.140;2023-04-01T05:08:05;9.18;118.99
65559;DHT22;52203;51.998;5.140;2023-04-01T05:10:33;9.14;118.99
65559;DHT22;52203;51.998;5.140;2023-04-01T05:12:59;9.15;118.99
65559;DHT22;52203;51.998;5.140;2023-04-01T05:15:24;9.14;118.99
65559;DHT22;52203;51.998;5.140;2023-04-01T05:17:50;9.15;118.99
65559;DHT22;52203;51.998;5.140;2023-04-01T05:20:16;9.17;118.99
65559;DHT22;52203;51.998;5.140;2023-04-01T05:22:42;9.19;118.99
65559;DHT22;52203;51.998;5.140;2023-04-01T05:25:08;9.17;118.99
65559;DHT22;52203;51.998;5.140;2023-04-01T05:27:33;9.18;118.99
65559;DHT22;52203;51.998;5.140;2023-04-01T05:29:59;9.15;118.99
65559;DHT22;52203;51.998;5.140;2023-04-01T05:32:24;9.18;118.99
65559;DHT22;52203;51.998;5.140;2023-04-01T05:34:51;9.15;118.99
65559;DHT22;52203;51.998;5.140;2023-04-01T05:37:16;9.16;118.99
65559;DHT22;52203;51.998;5.140;2023-04-01T05:39:42;9.18;118.99
65559;DHT22;52203;51.998;5.140;2023-04-01T05:42:08;9.17;118.99
65559;DHT22;52203;51.998;5.140;2023-04-01T05:44:34;9.24;118.99
65559;DHT22;52203;51.998;5.140;2023-04-01T05:47:00;9.22;118.99
65559;DHT22;52203;51.998;5.140;2023-04-01T05:49:26;9.27;118.99
65559;DHT22;52203;51.998;5.140;2023-04-01T05:51:51;9.31;118.99
65559;DHT22;52203;51.998;5.140;2023-04-01T05:54:18;9.25;118.99
65559;DHT22;52203;51.998;5.140;2023-04-01T05:56:43;9.27;118.99
65559;DHT22;52203;51.998;5.140;2023-04-01T05:59:10;9.31;118.99
65559;DHT22;52203;51.998;5.140;2023-04-01T06:01:36;9.26;118.99
65559;DHT22;52203;51.998;5.140;2023-04-01T06:04:03;9.27;118.99
65559;DHT22;52203;51.998;5.140;2023-04-01T06:06:30;9.29;118.99
65559;DHT22;52203;51.998;5.140;2023-04-01T06:09:04;9.29;118.99
65559;DHT22;52203;51.998;5.140;2023-04-01T06:20:18;9.34;118.99
65559;DHT22;52203;51.998;5.140;2023-04-01T06:31:26;9.34;118.99
65559;DHT22;52203;51.998;5.140;2023-04-01T06:36:53;9.32;118.99
65559;DHT22;52203;51.998;5.140;2023-04-01T06:42:21;9.34;118.99
65559;DHT22;52203;51.998;5.140;2023-04-01T06:50:32;9.30;118.99
65559;DHT22;52203;51.998;5.140;2023-04-01T06:53:21;9.31;118.99
65559;DHT22;52203;51.998;5.140;2023-04-01T06:55:59;9.35;118.99
65559;DHT22;52203;51.998;5.140;2023-04-01T06:58:29;9.39;118.99
65559;DHT22;52203;51.998;5.140;2023-04-01T07:01:02;9.36;118.99
65559;DHT22;52203;51.998;5.140;2023-04-01T07:03:44;9.40;118.99
65559;DHT22;52203;51.998;5.140;2023-04-01T07:06:21;9.38;118.99
65559;DHT22;52203;51.998;5.140;2023-04-01T07:08:50;9.41;118.99
65559;DHT22;52203;51.998;5.140;2023-04-01T07:11:30;9.46;118.99
65559;DHT22;52203;51.998;5.140;2023-04-01T07:14:28;9.46;118.99
65559;DHT22;52203;51.998;5.140;2023-04-01T07:19:50;9.44;118.99
65559;DHT22;52203;51.998;5.140;2023-04-01T07:24:47;9.37;118.99
65559;DHT22;52203;51.998;5.140;2023-04-01T07:27:13;9.39;118.99
65559;DHT22;52203;51.998;5.140;2023-04-01T07:29:40;9.41;118.99
65559;DHT22;52203;51.998;5.140;2023-04-01T07:32:20;9.42;118.99
65559;DHT22;52203;51.998;5.140;2023-04-01T07:35:24;9.42;118.99
65559;DHT22;52203;51.998;5.140;2023-04-01T07:41:40;9.57;118.99
65559;DHT22;52203;51.998;5.140;2023-04-01T07:47:17;9.60;118.99
65559;DHT22;52203;51.998;5.140;2023-04-01T07:55:23;9.72;118.99
65559;DHT22;52203;51.998;5.140;2023-04-01T08:03:48;9.75;118.99
65559;DHT22;52203;51.998;5.140;2023-04-01T08:06:39;9.78;118.99
65559;DHT22;52203;51.998;5.140;2023-04-01T08:09:32;9.90;118.99
65559;DHT22;52203;51.998;5.140;2023-04-01T08:15:39;9.88;118.99
65559;DHT22;52203;51.998;5.140;2023-04-01T08:21:05;9.88;118.99
65559;DHT22;52203;51.998;5.140;2023-04-01T08:23:37;9.91;118.99
65559;DHT22;52203;51.998;5.140;2023-04-01T08:26:09;9.93;118.99
65559;DHT22;52203;51.998;5.140;2023-04-01T08:28:55;9.98;118.99
65559;DHT22;52203;51.998;5.140;2023-04-01T08:31:33;10.04;118.99
65559;DHT22;52203;51.998;5.140;2023-04-01T08:34:04;9.99;118.99
65559;DHT22;52203;51.998;5.140;2023-04-01T08:36:37;10.07;118.99
65559;DHT22;52203;51.998;5.140;2023-04-01T08:39:10;10.10;118.99
65559;DHT22;52203;51.998;5.140;2023-04-01T08:55:26;10.26;118.99
65559;DHT22;52203;51.998;5.140;2023-04-01T09:26:03;10.69;118.99
65559;DHT22;52203;51.998;5.140;2023-04-01T09:53:42;11.25;118.99
65559;DHT22;52203;51.998;5.140;2023-04-01T10:07:44;11.23;118.99
65559;DHT22;52203;51.998;5.140;2023-04-01T10:19:03;11.69;118.99
65559;DHT22;52203;51.998;5.140;2023-04-01T10:24:23;11.74;118.99
65559;DHT22;52203;51.998;5.140;2023-04-01T10:27:22;11.73;118.99
65559;DHT22;52203;51.998;5.140;2023-04-01T10:30:13;11.70;118.99
65559;DHT22;52203;51.998;5.140;2023-04-01T10:47:26;12.29;118.99
65559;DHT22;52203;51.998;5.140;2023-04-01T11:13:38;12.63;118.99
65559;DHT22;52203;51.998;5.140;2023-04-01T11:16:24;12.46;118.99
65559;DHT22;52203;51.998;5.140;2023-04-01T11:21:49;11.70;118.99
65559;DHT22;52203;51.998;5.140;2023-04-01T11:32:46;11.77;118.99
65559;DHT22;52203;51.998;5.140;2023-04-01T11:35:37;12.17;118.99
65559;DHT22;52203;51.998;5.140;2023-04-01T11:44:22;13.36;118.99
65559;DHT22;52203;51.998;5.140;2023-04-01T12:01:01;13.83;118.99
65559;DHT22;52203;51.998;5.140;2023-04-01T12:12:17;9.51;118.99
65559;DHT22;52203;51.998;5.140;2023-04-01T12:18:04;8.95;118.99
65559;DHT22;52203;51.998;5.140;2023-04-01T12:20:54;8.82;118.99
65559;DHT22;52203;51.998;5.140;2023-04-01T12:26:42;8.46;118.99
65559;DHT22;52203;51.998;5.140;2023-04-01T12:29:37;8.44;118.99
65559;DHT22;52203;51.998;5.140;2023-04-01T13:00:24;7.44;118.99
65559;DHT22;52203;51.998;5.140;2023-04-01T13:11:20;7.23;118.99
65559;DHT22;52203;51.998;5.140;2023-04-01T13:17:15;7.11;118.99
65559;DHT22;52203;51.998;5.140;2023-04-01T13:23:07;7.12;118.99
65559;DHT22;52203;51.998;5.140;2023-04-01T13:25:38;7.10;118.99
65559;DHT22;52203;51.998;5.140;2023-04-01T13:28:24;7.13;118.99
65559;DHT22;52203;51.998;5.140;2023-04-01T13:42:19;7.56;118.99
65559;DHT22;52203;51.998;5.140;2023-04-01T13:50:17;7.76;118.99
65559;DHT22;52203;51.998;5.140;2023-04-01T13:58:30;7.79;118.99
65559;DHT22;52203;51.998;5.140;2023-04-01T14:04:03;7.54;118.99
65559;DHT22;52203;51.998;5.140;2023-04-01T14:15:32;6.93;118.99
65559;DHT22;52203;51.998;5.140;2023-04-01T14:21:04;6.84;118.99
65559;DHT22;52203;51.998;5.140;2023-04-01T14:23:49;6.64;118.99
65559;DHT22;52203;51.998;5.140;2023-04-01T14:26:42;6.64;118.99
65559;DHT22;52203;51.998;5.140;2023-04-01T14:29:37;6.55;118.99
65559;DHT22;52203;51.998;5.140;2023-04-01T14:32:15;6.51;118.99
65559;DHT22;52203;51.998;5.140;2023-04-01T14:35:21;6.38;118.99
65559;DHT22;52203;51.998;5.140;2023-04-01T14:44:09;6.17;118.99
65559;DHT22;52203;51.998;5.140;2023-04-01T14:47:20;10.41;118.99
65559;DHT22;52203;51.998;5.140;2023-04-01T14:49:49;10.48;118.99
65559;DHT22;52203;51.998;5.140;2023-04-01T14:52:28;10.48;118.99
65559;DHT22;52203;51.998;5.140;2023-04-01T14:54:54;10.52;118.99
65559;DHT22;52203;51.998;5.140;2023-04-01T14:57:29;10.57;118.99
65559;DHT22;52203;51.998;5.140;2023-04-01T15:00:09;10.57;118.99
65559;DHT22;52203;51.998;5.140;2023-04-01T15:03:01;10.56;118.99
65559;DHT22;52203;51.998;5.140;2023-04-01T15:08:32;10.54;118.99
65559;DHT22;52203;51.998;5.140;2023-04-01T15:11:21;10.51;118.99
65559;DHT22;52203;51.998;5.140;2023-04-01T15:22:58;10.23;118.99
65559;DHT22;52203;51.998;5.140;2023-04-01T15:28:16;10.25;118.99
65559;DHT22;52203;51.998;5.140;2023-04-01T15:31:00;10.26;118.99
65559;DHT22;52203;51.998;5.140;2023-04-01T15:36:30;10.28;118.99
65559;DHT22;52203;51.998;5.140;2023-04-01T15:39:18;10.26;118.99
65559;DHT22;52203;51.998;5.140;2023-04-01T15:55:31;10.13;118.99
65559;DHT22;52203;51.998;5.140;2023-04-01T16:03:38;10.00;118.99
65559;DHT22;52203;51.998;5.140;2023-04-01T16:22:35;9.91;118.99
65559;DHT22;52203;51.998;5.140;2023-04-01T16:25:43;9.91;118.99
65559;DHT22;52203;51.998;5.140;2023-04-01T16:31:03;9.85;118.99
65559;DHT22;52203;51.998;5.140;2023-04-01T16:33:50;9.83;118.99
65559;DHT22;52203;51.998;5.140;2023-04-01T16:36:24;9.81;118.99
65559;DHT22;52203;51.998;5.140;2023-04-01T16:47:20;9.71;118.99
65559;DHT22;52203;51.998;5.140;2023-04-01T16:49:53;9.67;118.99
65559;DHT22;52203;51.998;5.140;2023-04-01T16:55:16;9.68;118.99
65559;DHT22;52203;51.998;5.140;2023-04-01T16:57:51;9.66;118.99
65559;DHT22;52203;51.998;5.140;2023-04-01T17:00:47;9.63;118.99
65559;DHT22;52203;51.998;5.140;2023-04-01T17:03:18;9.61;118.99
65559;DHT22;52203;51.998;5.140;2023-04-01T17:11:12;9.54;118.99
65559;DHT22;52203;51.998;5.140;2023-04-01T17:14:11;9.49;118.99
65559;DHT22;52203;51.998;5.140;2023-04-01T17:30:12;9.39;118.99
65559;DHT22;52203;51.998;5.140;2023-04-01T17:44:05;9.15;118.99
65559;DHT22;52203;51.998;5.140;2023-04-01T17:47:01;9.09;118.99
65559;DHT22;52203;51.998;5.140;2023-04-01T17:49:42;9.06;118.99
65559;DHT22;52203;51.998;5.140;2023-04-01T17:52:19;9.01;118.99
65559;DHT22;52203;51.998;5.140;2023-04-01T17:57:50;9.01;118.99
65559;DHT22;52203;51.998;5.140;2023-04-01T18:03:30;9.02;118.99
65559;DHT22;52203;51.998;5.140;2023-04-01T18:06:17;9.01;118.99
65559;DHT22;52203;51.998;5.140;2023-04-01T18:15:03;8.82;118.99
65559;DHT22;52203;51.998;5.140;2023-04-01T18:22:57;8.82;118.99
65559;DHT22;52203;51.998;5.140;2023-04-01T18:25:45;8.75;118.99
65559;DHT22;52203;51.998;5.140;2023-04-01T18:30:43;8.85;118.99
65559;DHT22;52203;51.998;5.140;2023-04-01T18:36:03;8.82;118.99
65559;DHT22;52203;51.998;5.140;2023-04-01T18:38:36;8.81;118.99
65559;DHT22;52203;51.998;5.140;2023-04-01T18:44:28;8.71;118.99
65559;DHT22;52203;51.998;5.140;2023-04-01T18:47:05;8.77;118.99
65559;DHT22;52203;51.998;5.140;2023-04-01T18:52:17;8.66;118.99
65559;DHT22;52203;51.998;5.140;2023-04-01T18:57:50;8.68;118.99
65559;DHT22;52203;51.998;5.140;2023-04-01T19:00:39;8.64;118.99
65559;DHT22;52203;51.998;5.140;2023-04-01T19:03:16;8.72;118.99
65559;DHT22;52203;51.998;5.140;2023-04-01T19:05:45;8.66;118.99
65559;DHT22;52203;51.998;5.140;2023-04-01T19:08:41;8.62;118.99
65559;DHT22;52203;51.998;5.140;2023-04-01T19:32:46;8.52;118.99
65559;DHT22;52203;51.998;5.140;2023-04-01T19:38:15;8.49;118.99
65559;DHT22;52203;51.998;5.140;2023-04-01T19:51:48;8.56;118.99
65559;DHT22;52203;51.998;5.140;2023-04-01T19:54:34;8.58;118.99
65559;DHT22;52203;51.998;5.140;2023-04-01T20:04:43;8.39;118.99
65559;DHT22;52203;51.998;5.140;2023-04-01T20:07:16;8.33;118.99
65559;DHT22;52203;51.998;5.140;2023-04-01T20:14:58;8.24;118.99
65559;DHT22;52203;51.998;5.140;2023-04-01T20:17:38;8.20;118.99
65559;DHT22;52203;51.998;5.140;2023-04-01T20:25:27;8.22;118.99
65559;DHT22;52203;51.998;5.140;2023-04-01T20:36:13;8.05;118.99
65559;DHT22;52203;51.998;5.140;2023-04-01T20:39:09;8.00;118.99
65559;DHT22;52203;51.998;5.140;2023-04-01T20:47:51;7.91;118.99
65559;DHT22;52203;51.998;5.140;2023-04-01T20:53:11;7.81;118.99
65559;DHT22;52203;51.998;5.140;2023-04-01T20:56:23;7.86;118.99
65559;DHT22;52203;51.998;5.140;2023-04-01T21:06:01;7.74;118.99
65559;DHT22;52203;51.998;5.140;2023-04-01T21:08:59;7.75;118.99
65559;DHT22;52203;51.998;5.140;2023-04-01T21:15:12;7.73;118.99
65559;DHT22;52203;51.998;5.140;2023-04-01T22:13:23;7.11;118.99
65559;DHT22;52203;51.998;5.140;2023-04-01T22:16:42;7.10;118.99
65559;DHT22;52203;51.998;5.140;2023-04-01T22:43:18;6.83;118.99
65559;DHT22;52203;51.998;5.140;2023-04-01T22:46:13;6.85;118.99
65559;DHT22;52203;51.998;5.140;2023-04-01T22:48:56;6.86;118.99
65559;DHT22;52203;51.998;5.140;2023-04-01T22:57:08;6.86;118.99
65559;DHT22;52203;51.998;5.140;2023-04-01T23:03:08;6.82;118.99
65559;DHT22;52203;51.998;5.140;2023-04-01T23:05:35;6.84;118.99
65559;DHT22;52203;51.998;5.140;2023-04-01T23:11:30;6.72;118.99
65559;DHT22;52203;51.998;5.140;2023-04-01T23:14:29;6.67;118.99
65559;DHT22;52203;51.998;5.140;2023-04-01T23:26:19;6.59;118.99
65559;DHT22;52203;51.998;5.140;2023-04-01T23:39:00;6.59;118.99
65559;DHT22;52203;51.998;5.140;2023-04-01T23:41:32;6.52;118.99
65559;DHT22;52203;51.998;5.140;2023-04-01T23:50:56;6.50;118.99
